sensor_id;sensor_type;location;lat;lon;timestamp;P1;durP1;ratioP1;P2;durP2;ratioP2
18435;SDS011;9346;52.006;4.720;2022-12-18T00:02:05;39.83;;;15.57;;
18435;SDS011;9346;52.006;4.720;2022-12-18T00:04:32;44.67;;;18.67;;
18435;SDS011;9346;52.006;4.720;2022-12-18T00:06:59;56.10;;;18.00;;
18435;SDS011;9346;52.006;4.720;2022-12-18T00:09:26;39.30;;;15.60;;
18435;SDS011;9346;52.006;4.720;2022-12-18T00:11:53;28.47;;;14.13;;
18435;SDS011;9346;52.006;4.720;2022-12-18T00:14:21;42.17;;;16.07;;
18435;SDS011;9346;52.006;4.720;2022-12-18T00:16:48;26.03;;;15.03;;
18435;SDS011;9346;52.006;4.720;2022-12-18T00:19:15;57.93;;;16.60;;
18435;SDS011;9346;52.006;4.720;2022-12-18T00:21:42;44.83;;;15.17;;
18435;SDS011;9346;52.006;4.720;2022-12-18T00:24:09;53.37;;;14.60;;
18435;SDS011;9346;52.006;4.720;2022-12-18T00:26:37;35.27;;;12.43;;
18435;SDS011;9346;52.006;4.720;2022-12-18T00:29:06;41.23;;;15.23;;
18435;SDS011;9346;52.006;4.720;2022-12-18T00:31:38;34.97;;;13.27;;
18435;SDS011;9346;52.006;4.720;2022-12-18T00:34:05;44.20;;;13.23;;
18435;SDS011;9346;52.006;4.720;2022-12-18T00:36:33;50.80;;;15.20;;
18435;SDS011;9346;52.006;4.720;2022-12-18T00:39:02;52.30;;;11.50;;
18435;SDS011;9346;52.006;4.720;2022-12-18T00:41:30;34.60;;;12.70;;
18435;SDS011;9346;52.006;4.720;2022-12-18T00:44:16;39.37;;;14.53;;
18435;SDS011;9346;52.006;4.720;2022-12-18T00:46:45;44.10;;;14.17;;
18435;SDS011;9346;52.006;4.720;2022-12-18T00:49:13;42.40;;;13.87;;
18435;SDS011;9346;52.006;4.720;2022-12-18T00:51:41;33.00;;;12.60;;
18435;SDS011;9346;52.006;4.720;2022-12-18T00:54:09;31.47;;;14.30;;
18435;SDS011;9346;52.006;4.720;2022-12-18T00:56:36;30.73;;;13.40;;
18435;SDS011;9346;52.006;4.720;2022-12-18T00:59:04;26.37;;;9.87;;
18435;SDS011;9346;52.006;4.720;2022-12-18T01:01:31;30.37;;;13.53;;
18435;SDS011;9346;52.006;4.720;2022-12-18T01:04:01;44.30;;;13.90;;
18435;SDS011;9346;52.006;4.720;2022-12-18T01:06:29;32.20;;;13.47;;
18435;SDS011;9346;52.006;4.720;2022-12-18T01:08:56;29.67;;;12.03;;
18435;SDS011;9346;52.006;4.720;2022-12-18T01:11:23;29.27;;;11.50;;
18435;SDS011;9346;52.006;4.720;2022-12-18T01:13:51;47.67;;;13.57;;
18435;SDS011;9346;52.006;4.720;2022-12-18T01:16:18;25.43;;;13.00;;
18435;SDS011;9346;52.006;4.720;2022-12-18T01:18:46;49.93;;;14.03;;
18435;SDS011;9346;52.006;4.720;2022-12-18T01:21:14;33.60;;;15.37;;
18435;SDS011;9346;52.006;4.720;2022-12-18T01:23:45;21.97;;;10.40;;
18435;SDS011;9346;52.006;4.720;2022-12-18T01:26:13;33.40;;;12.30;;
18435;SDS011;9346;52.006;4.720;2022-12-18T01:28:42;23.17;;;10.90;;
18435;SDS011;9346;52.006;4.720;2022-12-18T01:31:11;27.50;;;12.40;;
18435;SDS011;9346;52.006;4.720;2022-12-18T01:33:39;35.77;;;13.77;;
18435;SDS011;9346;52.006;4.720;2022-12-18T01:36:06;34.00;;;10.33;;
18435;SDS011;9346;52.006;4.720;2022-12-18T01:38:35;31.50;;;12.77;;
18435;SDS011;9346;52.006;4.720;2022-12-18T01:41:02;23.17;;;9.93;;
18435;SDS011;9346;52.006;4.720;2022-12-18T01:43:42;28.27;;;11.37;;
18435;SDS011;9346;52.006;4.720;2022-12-18T01:46:14;32.97;;;15.37;;
18435;SDS011;9346;52.006;4.720;2022-12-18T01:48:41;28.50;;;11.43;;
18435;SDS011;9346;52.006;4.720;2022-12-18T01:51:10;24.80;;;10.50;;
18435;SDS011;9346;52.006;4.720;2022-12-18T01:53:40;30.60;;;12.27;;
18435;SDS011;9346;52.006;4.720;2022-12-18T01:56:10;48.50;;;13.07;;
18435;SDS011;9346;52.006;4.720;2022-12-18T01:58:41;34.00;;;12.20;;
18435;SDS011;9346;52.006;4.720;2022-12-18T02:01:14;29.63;;;12.47;;
18435;SDS011;9346;52.006;4.720;2022-12-18T02:03:41;31.63;;;12.67;;
18435;SDS011;9346;52.006;4.720;2022-12-18T02:06:10;24.33;;;12.77;;
18435;SDS011;9346;52.006;4.720;2022-12-18T02:08:45;39.53;;;11.53;;
18435;SDS011;9346;52.006;4.720;2022-12-18T02:11:21;29.43;;;11.37;;
18435;SDS011;9346;52.006;4.720;2022-12-18T02:13:59;23.17;;;12.30;;
18435;SDS011;9346;52.006;4.720;2022-12-18T02:16:39;26.20;;;11.07;;
18435;SDS011;9346;52.006;4.720;2022-12-18T02:19:16;43.87;;;11.63;;
18435;SDS011;9346;52.006;4.720;2022-12-18T02:22:03;21.00;;;9.40;;
18435;SDS011;9346;52.006;4.720;2022-12-18T02:24:42;17.00;;;9.63;;
18435;SDS011;9346;52.006;4.720;2022-12-18T02:27:21;23.80;;;10.70;;
18435;SDS011;9346;52.006;4.720;2022-12-18T02:29:50;25.37;;;11.43;;
18435;SDS011;9346;52.006;4.720;2022-12-18T02:32:22;42.80;;;12.67;;
18435;SDS011;9346;52.006;4.720;2022-12-18T02:34:51;31.20;;;11.77;;
18435;SDS011;9346;52.006;4.720;2022-12-18T02:37:22;29.30;;;11.07;;
18435;SDS011;9346;52.006;4.720;2022-12-18T02:39:51;19.03;;;12.00;;
18435;SDS011;9346;52.006;4.720;2022-12-18T02:42:23;27.33;;;10.97;;
18435;SDS011;9346;52.006;4.720;2022-12-18T02:44:50;43.70;;;12.40;;
18435;SDS011;9346;52.006;4.720;2022-12-18T02:47:18;30.07;;;11.87;;
18435;SDS011;9346;52.006;4.720;2022-12-18T02:49:49;28.87;;;11.47;;
18435;SDS011;9346;52.006;4.720;2022-12-18T02:52:24;42.67;;;12.60;;
18435;SDS011;9346;52.006;4.720;2022-12-18T02:55:00;21.03;;;11.80;;
18435;SDS011;9346;52.006;4.720;2022-12-18T02:57:42;29.60;;;9.00;;
18435;SDS011;9346;52.006;4.720;2022-12-18T03:00:16;18.13;;;10.00;;
18435;SDS011;9346;52.006;4.720;2022-12-18T03:02:47;25.00;;;8.90;;
18435;SDS011;9346;52.006;4.720;2022-12-18T03:05:21;19.23;;;10.13;;
18435;SDS011;9346;52.006;4.720;2022-12-18T03:07:52;18.67;;;8.63;;
18435;SDS011;9346;52.006;4.720;2022-12-18T03:10:24;26.53;;;10.20;;
18435;SDS011;9346;52.006;4.720;2022-12-18T03:12:56;24.97;;;11.23;;
18435;SDS011;9346;52.006;4.720;2022-12-18T03:15:29;47.90;;;14.27;;
18435;SDS011;9346;52.006;4.720;2022-12-18T03:18:01;19.63;;;9.10;;
18435;SDS011;9346;52.006;4.720;2022-12-18T03:20:31;19.27;;;10.40;;
18435;SDS011;9346;52.006;4.720;2022-12-18T03:23:02;21.80;;;10.60;;
18435;SDS011;9346;52.006;4.720;2022-12-18T03:25:33;30.30;;;11.90;;
18435;SDS011;9346;52.006;4.720;2022-12-18T03:28:05;26.00;;;10.50;;
18435;SDS011;9346;52.006;4.720;2022-12-18T03:30:36;21.03;;;8.33;;
18435;SDS011;9346;52.006;4.720;2022-12-18T03:33:07;14.63;;;9.00;;
18435;SDS011;9346;52.006;4.720;2022-12-18T03:35:38;31.07;;;11.93;;
18435;SDS011;9346;52.006;4.720;2022-12-18T03:38:08;28.83;;;11.13;;
18435;SDS011;9346;52.006;4.720;2022-12-18T03:40:40;29.57;;;11.33;;
18435;SDS011;9346;52.006;4.720;2022-12-18T03:43:19;23.07;;;9.30;;
18435;SDS011;9346;52.006;4.720;2022-12-18T03:45:56;18.83;;;8.37;;
18435;SDS011;9346;52.006;4.720;2022-12-18T03:48:29;30.30;;;10.87;;
18435;SDS011;9346;52.006;4.720;2022-12-18T03:51:05;18.47;;;11.57;;
18435;SDS011;9346;52.006;4.720;2022-12-18T03:53:36;23.63;;;10.80;;
18435;SDS011;9346;52.006;4.720;2022-12-18T03:56:11;33.77;;;11.40;;
18435;SDS011;9346;52.006;4.720;2022-12-18T03:58:43;26.80;;;12.17;;
18435;SDS011;9346;52.006;4.720;2022-12-18T04:01:16;22.90;;;12.77;;
18435;SDS011;9346;52.006;4.720;2022-12-18T04:03:45;23.80;;;11.27;;
18435;SDS011;9346;52.006;4.720;2022-12-18T04:06:15;24.93;;;13.87;;
18435;SDS011;9346;52.006;4.720;2022-12-18T04:08:43;28.53;;;10.57;;
18435;SDS011;9346;52.006;4.720;2022-12-18T04:11:11;23.17;;;11.20;;
18435;SDS011;9346;52.006;4.720;2022-12-18T04:13:38;25.03;;;10.60;;
18435;SDS011;9346;52.006;4.720;2022-12-18T04:16:07;32.83;;;11.97;;
18435;SDS011;9346;52.006;4.720;2022-12-18T04:18:36;37.47;;;11.80;;
18435;SDS011;9346;52.006;4.720;2022-12-18T04:21:04;39.67;;;12.23;;
18435;SDS011;9346;52.006;4.720;2022-12-18T04:23:31;16.63;;;9.60;;
18435;SDS011;9346;52.006;4.720;2022-12-18T04:25:58;26.63;;;11.10;;
18435;SDS011;9346;52.006;4.720;2022-12-18T04:28:25;41.43;;;13.87;;
18435;SDS011;9346;52.006;4.720;2022-12-18T04:30:52;31.50;;;12.97;;
18435;SDS011;9346;52.006;4.720;2022-12-18T04:33:21;17.97;;;8.40;;
18435;SDS011;9346;52.006;4.720;2022-12-18T04:35:48;37.50;;;12.00;;
18435;SDS011;9346;52.006;4.720;2022-12-18T04:38:15;32.73;;;12.77;;
18435;SDS011;9346;52.006;4.720;2022-12-18T04:40:43;15.23;;;8.47;;
18435;SDS011;9346;52.006;4.720;2022-12-18T04:43:10;18.30;;;9.73;;
18435;SDS011;9346;52.006;4.720;2022-12-18T04:45:37;24.43;;;12.37;;
18435;SDS011;9346;52.006;4.720;2022-12-18T04:48:03;21.03;;;12.40;;
18435;SDS011;9346;52.006;4.720;2022-12-18T04:50:33;24.50;;;11.00;;
18435;SDS011;9346;52.006;4.720;2022-12-18T04:53:00;17.57;;;9.60;;
18435;SDS011;9346;52.006;4.720;2022-12-18T04:55:27;23.97;;;11.33;;
18435;SDS011;9346;52.006;4.720;2022-12-18T04:57:54;21.07;;;10.80;;
18435;SDS011;9346;52.006;4.720;2022-12-18T05:00:21;20.70;;;9.33;;
18435;SDS011;9346;52.006;4.720;2022-12-18T05:02:48;20.43;;;9.50;;
18435;SDS011;9346;52.006;4.720;2022-12-18T05:05:15;24.17;;;11.23;;
18435;SDS011;9346;52.006;4.720;2022-12-18T05:07:45;20.77;;;8.90;;
18435;SDS011;9346;52.006;4.720;2022-12-18T05:10:12;30.07;;;9.40;;
18435;SDS011;9346;52.006;4.720;2022-12-18T05:12:38;22.07;;;8.87;;
18435;SDS011;9346;52.006;4.720;2022-12-18T05:15:23;21.50;;;9.87;;
18435;SDS011;9346;52.006;4.720;2022-12-18T05:17:50;17.03;;;8.30;;
18435;SDS011;9346;52.006;4.720;2022-12-18T05:20:17;23.17;;;8.83;;
18435;SDS011;9346;52.006;4.720;2022-12-18T05:22:46;31.37;;;11.77;;
18435;SDS011;9346;52.006;4.720;2022-12-18T05:25:13;24.27;;;10.17;;
18435;SDS011;9346;52.006;4.720;2022-12-18T05:27:40;23.37;;;11.40;;
18435;SDS011;9346;52.006;4.720;2022-12-18T05:30:08;18.53;;;9.83;;
18435;SDS011;9346;52.006;4.720;2022-12-18T05:32:35;21.50;;;11.93;;
18435;SDS011;9346;52.006;4.720;2022-12-18T05:35:02;20.90;;;9.33;;
18435;SDS011;9346;52.006;4.720;2022-12-18T05:37:30;24.03;;;11.37;;
18435;SDS011;9346;52.006;4.720;2022-12-18T05:39:58;30.57;;;11.37;;
18435;SDS011;9346;52.006;4.720;2022-12-18T05:42:25;28.40;;;9.83;;
18435;SDS011;9346;52.006;4.720;2022-12-18T05:44:52;36.07;;;11.97;;
18435;SDS011;9346;52.006;4.720;2022-12-18T05:47:19;23.27;;;11.73;;
18435;SDS011;9346;52.006;4.720;2022-12-18T05:49:46;20.27;;;11.23;;
18435;SDS011;9346;52.006;4.720;2022-12-18T05:52:13;30.17;;;11.13;;
18435;SDS011;9346;52.006;4.720;2022-12-18T05:54:40;20.77;;;9.70;;
18435;SDS011;9346;52.006;4.720;2022-12-18T05:57:08;14.80;;;9.10;;
18435;SDS011;9346;52.006;4.720;2022-12-18T05:59:36;12.67;;;7.20;;
18435;SDS011;9346;52.006;4.720;2022-12-18T06:02:02;18.53;;;9.97;;
18435;SDS011;9346;52.006;4.720;2022-12-18T06:04:32;20.77;;;8.63;;
18435;SDS011;9346;52.006;4.720;2022-12-18T06:06:59;20.77;;;9.77;;
18435;SDS011;9346;52.006;4.720;2022-12-18T06:09:29;19.37;;;8.87;;
18435;SDS011;9346;52.006;4.720;2022-12-18T06:11:57;28.50;;;8.33;;
18435;SDS011;9346;52.006;4.720;2022-12-18T06:14:26;14.27;;;7.10;;
18435;SDS011;9346;52.006;4.720;2022-12-18T06:16:53;14.67;;;6.90;;
18435;SDS011;9346;52.006;4.720;2022-12-18T06:19:20;18.70;;;6.17;;
18435;SDS011;9346;52.006;4.720;2022-12-18T06:21:47;13.63;;;8.43;;
18435;SDS011;9346;52.006;4.720;2022-12-18T06:24:14;18.77;;;9.13;;
18435;SDS011;9346;52.006;4.720;2022-12-18T06:26:41;25.23;;;9.40;;
18435;SDS011;9346;52.006;4.720;2022-12-18T06:29:08;31.53;;;9.80;;
18435;SDS011;9346;52.006;4.720;2022-12-18T06:31:36;22.23;;;8.90;;
18435;SDS011;9346;52.006;4.720;2022-12-18T06:34:03;23.73;;;8.10;;
18435;SDS011;9346;52.006;4.720;2022-12-18T06:36:31;13.30;;;8.13;;
18435;SDS011;9346;52.006;4.720;2022-12-18T06:38:58;13.20;;;8.17;;
18435;SDS011;9346;52.006;4.720;2022-12-18T06:41:25;18.50;;;10.73;;
18435;SDS011;9346;52.006;4.720;2022-12-18T06:43:53;10.90;;;7.40;;
18435;SDS011;9346;52.006;4.720;2022-12-18T06:46:19;26.30;;;10.97;;
18435;SDS011;9346;52.006;4.720;2022-12-18T06:48:49;14.97;;;8.47;;
18435;SDS011;9346;52.006;4.720;2022-12-18T06:51:17;12.57;;;7.17;;
18435;SDS011;9346;52.006;4.720;2022-12-18T06:53:45;20.77;;;8.27;;
18435;SDS011;9346;52.006;4.720;2022-12-18T06:56:13;14.33;;;9.57;;
18435;SDS011;9346;52.006;4.720;2022-12-18T06:58:40;17.43;;;8.20;;
18435;SDS011;9346;52.006;4.720;2022-12-18T07:01:08;20.20;;;9.20;;
18435;SDS011;9346;52.006;4.720;2022-12-18T07:03:36;6.33;;;5.63;;
18435;SDS011;9346;52.006;4.720;2022-12-18T07:06:06;17.27;;;7.97;;
18435;SDS011;9346;52.006;4.720;2022-12-18T07:08:39;13.40;;;7.10;;
18435;SDS011;9346;52.006;4.720;2022-12-18T07:11:05;21.30;;;6.90;;
18435;SDS011;9346;52.006;4.720;2022-12-18T07:13:32;8.03;;;6.47;;
18435;SDS011;9346;52.006;4.720;2022-12-18T07:16:03;17.23;;;6.47;;
18435;SDS011;9346;52.006;4.720;2022-12-18T07:18:31;12.97;;;5.50;;
18435;SDS011;9346;52.006;4.720;2022-12-18T07:20:59;23.00;;;8.83;;
18435;SDS011;9346;52.006;4.720;2022-12-18T07:23:31;12.90;;;6.00;;
18435;SDS011;9346;52.006;4.720;2022-12-18T07:26:00;16.20;;;7.67;;
18435;SDS011;9346;52.006;4.720;2022-12-18T07:28:28;23.90;;;6.03;;
18435;SDS011;9346;52.006;4.720;2022-12-18T07:30:55;13.13;;;7.43;;
18435;SDS011;9346;52.006;4.720;2022-12-18T07:33:22;10.10;;;7.47;;
18435;SDS011;9346;52.006;4.720;2022-12-18T07:35:49;17.97;;;6.00;;
18435;SDS011;9346;52.006;4.720;2022-12-18T07:38:16;15.77;;;9.70;;
18435;SDS011;9346;52.006;4.720;2022-12-18T07:40:44;12.07;;;7.17;;
18435;SDS011;9346;52.006;4.720;2022-12-18T07:43:11;20.13;;;5.90;;
18435;SDS011;9346;52.006;4.720;2022-12-18T07:45:38;9.93;;;6.87;;
18435;SDS011;9346;52.006;4.720;2022-12-18T07:48:05;7.70;;;6.90;;
18435;SDS011;9346;52.006;4.720;2022-12-18T07:50:32;16.07;;;7.93;;
18435;SDS011;9346;52.006;4.720;2022-12-18T07:52:59;12.80;;;8.10;;
18435;SDS011;9346;52.006;4.720;2022-12-18T07:55:28;21.87;;;9.40;;
18435;SDS011;9346;52.006;4.720;2022-12-18T07:57:59;20.47;;;8.70;;
18435;SDS011;9346;52.006;4.720;2022-12-18T08:00:27;11.50;;;5.90;;
18435;SDS011;9346;52.006;4.720;2022-12-18T08:02:54;8.00;;;6.20;;
18435;SDS011;9346;52.006;4.720;2022-12-18T08:05:21;7.87;;;5.60;;
18435;SDS011;9346;52.006;4.720;2022-12-18T08:07:48;11.57;;;7.60;;
18435;SDS011;9346;52.006;4.720;2022-12-18T08:10:15;13.60;;;7.50;;
18435;SDS011;9346;52.006;4.720;2022-12-18T08:12:43;11.80;;;6.13;;
18435;SDS011;9346;52.006;4.720;2022-12-18T08:15:11;14.13;;;6.83;;
18435;SDS011;9346;52.006;4.720;2022-12-18T08:17:38;13.47;;;6.00;;
18435;SDS011;9346;52.006;4.720;2022-12-18T08:20:05;7.93;;;5.70;;
18435;SDS011;9346;52.006;4.720;2022-12-18T08:22:33;31.67;;;8.60;;
18435;SDS011;9346;52.006;4.720;2022-12-18T08:25:01;11.97;;;5.90;;
18435;SDS011;9346;52.006;4.720;2022-12-18T08:27:28;14.93;;;7.07;;
18435;SDS011;9346;52.006;4.720;2022-12-18T08:29:55;10.93;;;5.80;;
18435;SDS011;9346;52.006;4.720;2022-12-18T08:32:23;10.33;;;7.67;;
18435;SDS011;9346;52.006;4.720;2022-12-18T08:34:51;12.17;;;7.17;;
18435;SDS011;9346;52.006;4.720;2022-12-18T08:37:17;6.87;;;5.63;;
18435;SDS011;9346;52.006;4.720;2022-12-18T08:39:44;12.93;;;7.90;;
18435;SDS011;9346;52.006;4.720;2022-12-18T08:42:11;15.10;;;7.20;;
18435;SDS011;9346;52.006;4.720;2022-12-18T08:44:55;11.90;;;5.13;;
18435;SDS011;9346;52.006;4.720;2022-12-18T08:47:24;12.40;;;6.63;;
18435;SDS011;9346;52.006;4.720;2022-12-18T08:49:51;19.00;;;6.83;;
18435;SDS011;9346;52.006;4.720;2022-12-18T08:52:19;6.07;;;4.47;;
18435;SDS011;9346;52.006;4.720;2022-12-18T08:54:45;11.93;;;6.80;;
18435;SDS011;9346;52.006;4.720;2022-12-18T08:57:13;17.43;;;7.40;;
18435;SDS011;9346;52.006;4.720;2022-12-18T08:59:39;8.00;;;5.77;;
18435;SDS011;9346;52.006;4.720;2022-12-18T09:02:07;10.67;;;6.97;;
18435;SDS011;9346;52.006;4.720;2022-12-18T09:04:37;19.67;;;8.43;;
18435;SDS011;9346;52.006;4.720;2022-12-18T09:07:05;10.70;;;5.33;;
18435;SDS011;9346;52.006;4.720;2022-12-18T09:09:32;8.80;;;6.20;;
18435;SDS011;9346;52.006;4.720;2022-12-18T09:11:59;9.40;;;6.83;;
18435;SDS011;9346;52.006;4.720;2022-12-18T09:14:26;9.53;;;7.30;;
18435;SDS011;9346;52.006;4.720;2022-12-18T09:16:52;14.83;;;8.47;;
18435;SDS011;9346;52.006;4.720;2022-12-18T09:19:19;16.17;;;8.07;;
18435;SDS011;9346;52.006;4.720;2022-12-18T09:21:48;16.27;;;8.93;;
18435;SDS011;9346;52.006;4.720;2022-12-18T09:24:15;12.47;;;7.63;;
18435;SDS011;9346;52.006;4.720;2022-12-18T09:26:42;9.87;;;6.37;;
18435;SDS011;9346;52.006;4.720;2022-12-18T09:29:10;21.30;;;8.57;;
18435;SDS011;9346;52.006;4.720;2022-12-18T09:31:37;18.57;;;8.73;;
18435;SDS011;9346;52.006;4.720;2022-12-18T09:34:05;12.77;;;7.23;;
18435;SDS011;9346;52.006;4.720;2022-12-18T09:36:32;13.80;;;7.77;;
18435;SDS011;9346;52.006;4.720;2022-12-18T09:39:00;16.20;;;5.87;;
18435;SDS011;9346;52.006;4.720;2022-12-18T09:41:33;9.03;;;6.63;;
18435;SDS011;9346;52.006;4.720;2022-12-18T09:44:11;16.47;;;7.40;;
18435;SDS011;9346;52.006;4.720;2022-12-18T09:46:44;12.63;;;6.57;;
18435;SDS011;9346;52.006;4.720;2022-12-18T09:49:14;11.60;;;5.47;;
18435;SDS011;9346;52.006;4.720;2022-12-18T09:51:44;10.07;;;6.57;;
18435;SDS011;9346;52.006;4.720;2022-12-18T09:54:18;11.23;;;7.67;;
18435;SDS011;9346;52.006;4.720;2022-12-18T09:56:50;15.77;;;7.50;;
18435;SDS011;9346;52.006;4.720;2022-12-18T09:59:18;12.27;;;7.63;;
18435;SDS011;9346;52.006;4.720;2022-12-18T10:01:50;8.50;;;5.90;;
18435;SDS011;9346;52.006;4.720;2022-12-18T10:04:17;9.10;;;5.73;;
18435;SDS011;9346;52.006;4.720;2022-12-18T10:06:46;8.13;;;5.37;;
18435;SDS011;9346;52.006;4.720;2022-12-18T10:09:24;15.37;;;5.97;;
18435;SDS011;9346;52.006;4.720;2022-12-18T10:12:00;10.57;;;4.93;;
18435;SDS011;9346;52.006;4.720;2022-12-18T10:14:35;11.87;;;7.63;;
18435;SDS011;9346;52.006;4.720;2022-12-18T10:17:11;11.40;;;6.33;;
18435;SDS011;9346;52.006;4.720;2022-12-18T10:19:45;10.43;;;5.97;;
18435;SDS011;9346;52.006;4.720;2022-12-18T10:22:22;14.23;;;7.87;;
18435;SDS011;9346;52.006;4.720;2022-12-18T10:25:01;8.70;;;5.40;;
18435;SDS011;9346;52.006;4.720;2022-12-18T10:27:32;15.43;;;7.17;;
18435;SDS011;9346;52.006;4.720;2022-12-18T10:29:59;14.40;;;6.90;;
18435;SDS011;9346;52.006;4.720;2022-12-18T10:32:30;12.20;;;6.53;;
18435;SDS011;9346;52.006;4.720;2022-12-18T10:34:57;10.43;;;6.10;;
18435;SDS011;9346;52.006;4.720;2022-12-18T10:37:25;11.67;;;5.97;;
18435;SDS011;9346;52.006;4.720;2022-12-18T10:40:08;18.30;;;7.17;;
18435;SDS011;9346;52.006;4.720;2022-12-18T10:42:37;12.47;;;6.80;;
18435;SDS011;9346;52.006;4.720;2022-12-18T10:45:09;11.77;;;7.37;;
18435;SDS011;9346;52.006;4.720;2022-12-18T10:47:41;17.47;;;6.57;;
18435;SDS011;9346;52.006;4.720;2022-12-18T10:50:17;15.63;;;8.27;;
18435;SDS011;9346;52.006;4.720;2022-12-18T10:52:54;15.67;;;5.67;;
18435;SDS011;9346;52.006;4.720;2022-12-18T10:55:23;17.23;;;7.80;;
18435;SDS011;9346;52.006;4.720;2022-12-18T10:57:53;13.07;;;7.73;;
18435;SDS011;9346;52.006;4.720;2022-12-18T11:00:39;21.20;;;8.50;;
18435;SDS011;9346;52.006;4.720;2022-12-18T11:03:12;21.40;;;8.17;;
18435;SDS011;9346;52.006;4.720;2022-12-18T11:06:03;16.47;;;9.50;;
18435;SDS011;9346;52.006;4.720;2022-12-18T11:08:32;27.17;;;8.93;;
18435;SDS011;9346;52.006;4.720;2022-12-18T11:11:01;19.73;;;7.70;;
18435;SDS011;9346;52.006;4.720;2022-12-18T11:13:29;20.70;;;7.70;;
18435;SDS011;9346;52.006;4.720;2022-12-18T11:15:57;16.07;;;7.90;;
18435;SDS011;9346;52.006;4.720;2022-12-18T11:18:27;12.43;;;8.97;;
18435;SDS011;9346;52.006;4.720;2022-12-18T11:20:59;18.40;;;8.77;;
18435;SDS011;9346;52.006;4.720;2022-12-18T11:23:32;11.43;;;7.13;;
18435;SDS011;9346;52.006;4.720;2022-12-18T11:26:02;21.97;;;8.67;;
18435;SDS011;9346;52.006;4.720;2022-12-18T11:28:35;15.83;;;7.33;;
18435;SDS011;9346;52.006;4.720;2022-12-18T11:31:17;19.67;;;10.53;;
18435;SDS011;9346;52.006;4.720;2022-12-18T11:33:54;13.30;;;8.27;;
18435;SDS011;9346;52.006;4.720;2022-12-18T11:36:28;12.97;;;8.57;;
18435;SDS011;9346;52.006;4.720;2022-12-18T11:39:00;13.77;;;7.00;;
18435;SDS011;9346;52.006;4.720;2022-12-18T11:41:34;14.83;;;9.07;;
18435;SDS011;9346;52.006;4.720;2022-12-18T11:44:22;14.30;;;7.97;;
18435;SDS011;9346;52.006;4.720;2022-12-18T11:46:55;9.73;;;6.20;;
18435;SDS011;9346;52.006;4.720;2022-12-18T11:49:28;17.77;;;9.37;;
18435;SDS011;9346;52.006;4.720;2022-12-18T11:52:00;17.20;;;8.60;;
18435;SDS011;9346;52.006;4.720;2022-12-18T11:54:32;15.33;;;9.20;;
18435;SDS011;9346;52.006;4.720;2022-12-18T11:57:03;19.23;;;10.20;;
18435;SDS011;9346;52.006;4.720;2022-12-18T11:59:42;22.60;;;10.17;;
18435;SDS011;9346;52.006;4.720;2022-12-18T12:02:33;12.00;;;7.47;;
18435;SDS011;9346;52.006;4.720;2022-12-18T12:05:16;13.60;;;8.50;;
18435;SDS011;9346;52.006;4.720;2022-12-18T12:08:05;14.77;;;8.87;;
18435;SDS011;9346;52.006;4.720;2022-12-18T12:10:42;20.93;;;10.53;;
18435;SDS011;9346;52.006;4.720;2022-12-18T12:13:23;15.80;;;9.27;;
18435;SDS011;9346;52.006;4.720;2022-12-18T12:16:11;16.77;;;8.30;;
18435;SDS011;9346;52.006;4.720;2022-12-18T12:18:47;15.03;;;8.13;;
18435;SDS011;9346;52.006;4.720;2022-12-18T12:21:39;19.23;;;8.77;;
18435;SDS011;9346;52.006;4.720;2022-12-18T12:24:12;19.40;;;9.60;;
18435;SDS011;9346;52.006;4.720;2022-12-18T12:26:56;15.03;;;9.97;;
18435;SDS011;9346;52.006;4.720;2022-12-18T12:29:38;16.73;;;6.87;;
18435;SDS011;9346;52.006;4.720;2022-12-18T12:32:20;13.93;;;7.43;;
18435;SDS011;9346;52.006;4.720;2022-12-18T12:35:02;14.27;;;9.37;;
18435;SDS011;9346;52.006;4.720;2022-12-18T12:37:40;14.03;;;7.33;;
18435;SDS011;9346;52.006;4.720;2022-12-18T12:40:15;11.07;;;7.50;;
18435;SDS011;9346;52.006;4.720;2022-12-18T12:42:47;16.17;;;9.03;;
18435;SDS011;9346;52.006;4.720;2022-12-18T12:45:39;20.73;;;9.43;;
18435;SDS011;9346;52.006;4.720;2022-12-18T12:48:14;15.23;;;8.70;;
18435;SDS011;9346;52.006;4.720;2022-12-18T12:50:45;16.13;;;7.93;;
18435;SDS011;9346;52.006;4.720;2022-12-18T12:53:17;15.70;;;9.10;;
18435;SDS011;9346;52.006;4.720;2022-12-18T12:55:50;16.90;;;8.93;;
18435;SDS011;9346;52.006;4.720;2022-12-18T12:58:19;15.73;;;10.83;;
18435;SDS011;9346;52.006;4.720;2022-12-18T13:01:00;16.57;;;8.87;;
18435;SDS011;9346;52.006;4.720;2022-12-18T13:03:36;12.03;;;7.70;;
18435;SDS011;9346;52.006;4.720;2022-12-18T13:06:14;17.87;;;9.10;;
18435;SDS011;9346;52.006;4.720;2022-12-18T13:08:54;15.03;;;7.23;;
18435;SDS011;9346;52.006;4.720;2022-12-18T13:11:30;11.67;;;7.20;;
18435;SDS011;9346;52.006;4.720;2022-12-18T13:14:26;14.83;;;8.80;;
18435;SDS011;9346;52.006;4.720;2022-12-18T13:17:16;12.57;;;7.10;;
18435;SDS011;9346;52.006;4.720;2022-12-18T13:20:11;19.57;;;9.63;;
18435;SDS011;9346;52.006;4.720;2022-12-18T13:22:41;16.70;;;9.27;;
18435;SDS011;9346;52.006;4.720;2022-12-18T13:25:29;15.43;;;8.87;;
18435;SDS011;9346;52.006;4.720;2022-12-18T13:28:03;15.57;;;9.20;;
18435;SDS011;9346;52.006;4.720;2022-12-18T13:33:41;12.80;;;7.57;;
18435;SDS011;9346;52.006;4.720;2022-12-18T13:36:13;19.03;;;9.80;;
18435;SDS011;9346;52.006;4.720;2022-12-18T13:38:42;14.87;;;9.87;;
18435;SDS011;9346;52.006;4.720;2022-12-18T13:41:22;17.13;;;8.87;;
18435;SDS011;9346;52.006;4.720;2022-12-18T13:43:51;17.97;;;8.77;;
18435;SDS011;9346;52.006;4.720;2022-12-18T13:46:26;19.80;;;9.53;;
18435;SDS011;9346;52.006;4.720;2022-12-18T13:49:00;13.40;;;7.27;;
18435;SDS011;9346;52.006;4.720;2022-12-18T13:51:31;20.07;;;9.80;;
18435;SDS011;9346;52.006;4.720;2022-12-18T13:54:00;13.30;;;7.93;;
18435;SDS011;9346;52.006;4.720;2022-12-18T13:56:29;19.03;;;9.50;;
18435;SDS011;9346;52.006;4.720;2022-12-18T13:59:10;16.27;;;7.87;;
18435;SDS011;9346;52.006;4.720;2022-12-18T14:01:43;21.07;;;10.73;;
18435;SDS011;9346;52.006;4.720;2022-12-18T14:04:17;17.77;;;10.07;;
18435;SDS011;9346;52.006;4.720;2022-12-18T14:06:47;17.57;;;8.47;;
18435;SDS011;9346;52.006;4.720;2022-12-18T14:09:19;20.77;;;8.33;;
18435;SDS011;9346;52.006;4.720;2022-12-18T14:11:49;21.90;;;10.47;;
18435;SDS011;9346;52.006;4.720;2022-12-18T14:14:39;16.87;;;9.63;;
18435;SDS011;9346;52.006;4.720;2022-12-18T14:17:09;15.80;;;8.97;;
18435;SDS011;9346;52.006;4.720;2022-12-18T14:19:45;20.70;;;9.13;;
18435;SDS011;9346;52.006;4.720;2022-12-18T14:22:15;14.90;;;8.77;;
18435;SDS011;9346;52.006;4.720;2022-12-18T14:24:44;17.73;;;10.27;;
18435;SDS011;9346;52.006;4.720;2022-12-18T14:27:12;23.37;;;8.90;;
18435;SDS011;9346;52.006;4.720;2022-12-18T14:29:47;21.30;;;8.60;;
18435;SDS011;9346;52.006;4.720;2022-12-18T14:32:14;19.83;;;9.37;;
18435;SDS011;9346;52.006;4.720;2022-12-18T14:34:45;23.57;;;9.63;;
18435;SDS011;9346;52.006;4.720;2022-12-18T14:37:15;16.90;;;9.20;;
18435;SDS011;9346;52.006;4.720;2022-12-18T14:39:53;24.67;;;13.80;;
18435;SDS011;9346;52.006;4.720;2022-12-18T14:42:22;21.93;;;12.93;;
18435;SDS011;9346;52.006;4.720;2022-12-18T14:47:52;16.53;;;7.83;;
18435;SDS011;9346;52.006;4.720;2022-12-18T14:50:22;18.30;;;10.63;;
18435;SDS011;9346;52.006;4.720;2022-12-18T14:52:50;15.17;;;9.50;;
18435;SDS011;9346;52.006;4.720;2022-12-18T14:55:18;15.63;;;9.20;;
18435;SDS011;9346;52.006;4.720;2022-12-18T14:57:48;30.43;;;9.23;;
18435;SDS011;9346;52.006;4.720;2022-12-18T15:00:19;24.27;;;9.23;;
18435;SDS011;9346;52.006;4.720;2022-12-18T15:02:48;20.03;;;10.50;;
18435;SDS011;9346;52.006;4.720;2022-12-18T15:05:19;17.50;;;8.80;;
18435;SDS011;9346;52.006;4.720;2022-12-18T15:07:49;19.23;;;9.57;;
18435;SDS011;9346;52.006;4.720;2022-12-18T15:10:18;15.07;;;10.63;;
18435;SDS011;9346;52.006;4.720;2022-12-18T15:12:47;23.07;;;10.00;;